Coral Coast — WDF5120 — position and weather

sailwx.info

Track history (hours):
 
Tides and Currents Weather Stations Pressure Air Temp Water Temp Dewpoint Dewpoint Depression Visibility Wind Speed Wind Dir Waves Ship Positions

Coral Coast

Owner: Dann MarineTowing, LC., Chesapeake City, MD. More information available from US FCC via Universal Licensing System and Coast Guard Vessel Documentation Center.

Last reported at 2016-Jun-27 18:29 UTC. Time now 2016-Jun-29 00:22 UTC.
Position N 40°47' W 073°60'.

Length 70 m; draft 5.3 m.

Type: Tug. MMSI: 367459570.

Date/timePositionNaut miles runAvg speedWind from/ knotsBaromVisibWave heightAir tempDewpointWater temp
2016-Jun-27 18:29N 40°47' W 073°60'7 7.8
2016-Jun-27 17:33N 40°40' W 074°00'0 0.0
2016-Jun-27 16:33N 40°40' W 074°00'0 0.0
2016-Jun-27 15:33N 40°40' W 074°00'0 0.0
2016-Jun-27 14:33N 40°40' W 074°00'0 0.0
2016-Jun-27 13:33N 40°40' W 074°00'0 0.0
2016-Jun-27 12:33N 40°40' W 074°00'0 0.0
2016-Jun-27 11:33N 40°40' W 074°00'0 0.0
2016-Jun-27 10:33N 40°40' W 074°00'0 0.0
2016-Jun-27 09:33N 40°40' W 074°00'0 0.0
2016-Jun-27 08:33N 40°40' W 074°00'0 0.0
2016-Jun-27 07:34N 40°40' W 074°00'0 0.0
2016-Jun-27 06:33N 40°40' W 074°00'0 0.0
2016-Jun-27 05:33N 40°40' W 074°00'0 0.0
2016-Jun-27 04:33N 40°40' W 074°00'0 0.0
2016-Jun-27 03:33N 40°40' W 074°00'0 0.0
2016-Jun-27 02:33N 40°40' W 074°00'0 0.0
2016-Jun-27 01:33N 40°40' W 074°00'0 0.0
2016-Jun-27 00:33N 40°40' W 074°00'0 0.0
2016-Jun-26 23:33N 40°40' W 074°00'0 0.0
2016-Jun-26 22:33N 40°40' W 074°00'0 0.0
2016-Jun-26 21:33N 40°40' W 074°00'0 0.0
2016-Jun-26 20:33N 40°40' W 074°00'0 0.0
2016-Jun-26 19:33N 40°40' W 074°00'0 0.0
2016-Jun-26 18:33N 40°40' W 074°00'0 0.0
2016-Jun-26 17:33N 40°40' W 074°00'0 0.0
2016-Jun-26 16:33N 40°40' W 074°00'0 0.0
2016-Jun-26 15:33N 40°40' W 074°00'0 0.0
2016-Jun-26 14:33N 40°40' W 074°00'0 0.0
2016-Jun-26 13:33N 40°40' W 074°00'0 0.0
2016-Jun-26 12:33N 40°40' W 074°00'0 0.0
2016-Jun-26 11:33N 40°40' W 074°00'0 0.0
2016-Jun-26 10:33N 40°40' W 074°00'0 0.0
2016-Jun-26 09:33N 40°40' W 074°00'0 0.0
2016-Jun-26 08:33N 40°40' W 074°00'0 0.0
2016-Jun-26 07:33N 40°40' W 074°00'0 0.0
2016-Jun-26 06:33N 40°40' W 074°00'0 0.0
2016-Jun-26 05:33N 40°40' W 074°00'0 0.0
2016-Jun-26 04:33N 40°40' W 074°00'0 0.0
2016-Jun-26 03:33N 40°40' W 074°00'0 0.0
2016-Jun-26 02:33N 40°40' W 074°00'0 0.0
2016-Jun-26 01:33N 40°40' W 074°00'0 0.0
2016-Jun-26 00:33N 40°40' W 074°00'0 0.0
2016-Jun-25 23:33N 40°40' W 074°00'0 0.0
2016-Jun-25 22:33N 40°40' W 074°00'0 0.0
2016-Jun-25 21:33N 40°40' W 074°00'0 0.0
2016-Jun-25 20:34N 40°40' W 074°00'0 0.0
2016-Jun-25 19:34N 40°40' W 074°00'5 4.5
2016-Jun-25 18:34N 40°39' W 074°06'1 0.6
2016-Jun-25 17:34N 40°39' W 074°07'0 0.0
2016-Jun-25 16:33N 40°39' W 074°07'0 0.0
2016-Jun-25 15:34N 40°39' W 074°07'1 0.9
2016-Jun-25 14:34N 40°39' W 074°05'4 4.1
2016-Jun-25 13:34N 40°40' W 074°00'3 2.7
2016-Jun-25 12:33N 40°43' W 073°59'7 6.7
2016-Jun-25 11:31N 40°48' W 073°54'3 3.5
2016-Jun-25 10:32N 40°46' W 073°51'0 0.0
2016-Jun-25 03:16N 40°46' W 073°51'0 0.0
2016-Jun-25 01:22N 40°46' W 073°51'0 0.0
2016-Jun-25 00:32N 40°46' W 073°51'0 0.0
2016-Jun-24 23:21N 40°46' W 073°51'0 0.0
2016-Jun-24 22:14N 40°46' W 073°51'0 0.0
2016-Jun-24 21:19N 40°46' W 073°51'0 0.0
2016-Jun-24 19:29N 40°46' W 073°51'3 1.2
2016-Jun-24 16:29N 40°48' W 073°54'7 8.0
2016-Jun-24 15:34N 40°42' W 073°60'2 1.6
2016-Jun-24 14:34N 40°43' W 074°01'1 1.3
2016-Jun-24 13:34N 40°45' W 074°01'3 2.9
2016-Jun-24 12:34N 40°47' W 073°59'2 0.0
2016-Jun-22 11:34N 40°46' W 074°00'3 2.7
2016-Jun-22 10:32N 40°44' W 073°58'6 0.2
2016-Jun-21 05:33N 40°46' W 073°51'0 0.0
2016-Jun-21 04:33N 40°46' W 073°51'0 0.0
2016-Jun-21 03:30N 40°46' W 073°51'0 0.0
2016-Jun-21 02:06N 40°46' W 073°51'0 0.0
2016-Jun-21 01:33N 40°46' W 073°51'0 0.0
2016-Jun-20 23:33N 40°46' W 073°51'0 0.0
2016-Jun-20 22:33N 40°46' W 073°51'0 0.0
2016-Jun-20 21:33N 40°46' W 073°51'0 0.0
2016-Jun-20 20:23N 40°46' W 073°51'0 0.0
2016-Jun-20 18:11N 40°46' W 073°51'0 0.0
2016-Jun-20 17:33N 40°46' W 073°51'0 0.0
2016-Jun-20 16:30N 40°46' W 073°51'0 0.0
2016-Jun-20 15:25N 40°46' W 073°51'0 0.0
2016-Jun-20 14:25N 40°46' W 073°51'0 0.0
2016-Jun-20 13:27N 40°46' W 073°51'0 0.0
2016-Jun-20 12:18N 40°46' W 073°51'0 0.0
2016-Jun-20 11:33N 40°46' W 073°51'0 0.0
2016-Jun-20 10:31N 40°46' W 073°51'0 0.0
2016-Jun-20 09:32N 40°46' W 073°51'0 0.0
2016-Jun-20 08:31N 40°46' W 073°51'0 0.0
2016-Jun-20 07:33N 40°46' W 073°51'0 0.0
2016-Jun-20 06:23N 40°46' W 073°51'0 0.0
2016-Jun-20 05:34N 40°46' W 073°51'0 0.0
2016-Jun-20 04:31N 40°46' W 073°51'0 0.0
2016-Jun-20 03:33N 40°46' W 073°51'0 0.0
2016-Jun-20 02:31N 40°46' W 073°51'0 0.0
2016-Jun-20 00:33N 40°46' W 073°51'0 0.0
2016-Jun-19 23:33N 40°46' W 073°51'0 0.0
2016-Jun-19 22:33N 40°46' W 073°51'0 0.0
2016-Jun-19 19:31N 40°46' W 073°51'0 0.0
2016-Jun-19 17:21N 40°46' W 073°51'0 0.0
2016-Jun-19 16:34N 40°46' W 073°51'0 0.0
2016-Jun-19 15:29N 40°46' W 073°51'0 0.0
2016-Jun-19 14:33N 40°46' W 073°51'0 0.0
2016-Jun-19 12:19N 40°46' W 073°51'0 0.0
2016-Jun-19 04:32N 40°46' W 073°51'0 0.0
2016-Jun-19 03:32N 40°46' W 073°51'0 0.0
2016-Jun-19 02:33N 40°46' W 073°51'0 0.0
2016-Jun-19 00:31N 40°46' W 073°51'0 0.0
2016-Jun-18 23:33N 40°46' W 073°51'0 0.0
2016-Jun-18 22:33N 40°46' W 073°51'0 0.0
2016-Jun-18 21:33N 40°46' W 073°51'0 0.0
2016-Jun-18 20:30N 40°46' W 073°51'0 0.0
2016-Jun-18 19:33N 40°46' W 073°51'0 0.0
2016-Jun-18 18:31N 40°46' W 073°51'0 0.0
2016-Jun-18 17:31N 40°46' W 073°51'0 0.0
2016-Jun-18 16:33N 40°46' W 073°51'0 0.0
2016-Jun-18 15:32N 40°46' W 073°51'0 0.0
2016-Jun-18 14:33N 40°46' W 073°51'0 0.0
2016-Jun-18 13:34N 40°46' W 073°51'2 1.7
2016-Jun-18 12:32N 40°48' W 073°52'6 6.1
2016-Jun-18 11:33N 40°44' W 073°58'2 2.4
2016-Jun-18 10:33N 40°45' W 074°01'6 5.9
2016-Jun-18 09:31N 40°51' W 073°57'  
Track history (hours):
 
Tides and Currents Weather Stations Pressure Air Temp Water Temp Dewpoint Dewpoint Depression Visibility Wind Speed Wind Dir Waves Ship Positions

Coral Coast

Owner: Dann MarineTowing, LC., Chesapeake City, MD. More information available from US FCC via Universal Licensing System and Coast Guard Vessel Documentation Center.

Last reported at 2016-Jun-27 18:29 UTC. Time now 2016-Jun-29 00:22 UTC.
Position N 40°47' W 073°60'.

Length 70 m; draft 5.3 m.

Type: Tug. MMSI: 367459570.

Date/timePositionNaut miles runAvg speedWind from/ knotsBaromVisibWave heightAir tempDewpointWater temp
2016-Jun-27 18:29N 40°47' W 073°60'7 7.8
2016-Jun-27 17:33N 40°40' W 074°00'0 0.0
2016-Jun-27 16:33N 40°40' W 074°00'0 0.0
2016-Jun-27 15:33N 40°40' W 074°00'0 0.0
2016-Jun-27 14:33N 40°40' W 074°00'0 0.0
2016-Jun-27 13:33N 40°40' W 074°00'0 0.0
2016-Jun-27 12:33N 40°40' W 074°00'0 0.0
2016-Jun-27 11:33N 40°40' W 074°00'0 0.0
2016-Jun-27 10:33N 40°40' W 074°00'0 0.0
2016-Jun-27 09:33N 40°40' W 074°00'0 0.0
2016-Jun-27 08:33N 40°40' W 074°00'0 0.0
2016-Jun-27 07:34N 40°40' W 074°00'0 0.0
2016-Jun-27 06:33N 40°40' W 074°00'0 0.0
2016-Jun-27 05:33N 40°40' W 074°00'0 0.0
2016-Jun-27 04:33N 40°40' W 074°00'0 0.0
2016-Jun-27 03:33N 40°40' W 074°00'0 0.0
2016-Jun-27 02:33N 40°40' W 074°00'0 0.0
2016-Jun-27 01:33N 40°40' W 074°00'0 0.0
2016-Jun-27 00:33N 40°40' W 074°00'0 0.0
2016-Jun-26 23:33N 40°40' W 074°00'0 0.0
2016-Jun-26 22:33N 40°40' W 074°00'0 0.0
2016-Jun-26 21:33N 40°40' W 074°00'0 0.0
2016-Jun-26 20:33N 40°40' W 074°00'0 0.0
2016-Jun-26 19:33N 40°40' W 074°00'0 0.0
2016-Jun-26 18:33N 40°40' W 074°00'0 0.0
2016-Jun-26 17:33N 40°40' W 074°00'0 0.0
2016-Jun-26 16:33N 40°40' W 074°00'0 0.0
2016-Jun-26 15:33N 40°40' W 074°00'0 0.0
2016-Jun-26 14:33N 40°40' W 074°00'0 0.0
2016-Jun-26 13:33N 40°40' W 074°00'0 0.0
2016-Jun-26 12:33N 40°40' W 074°00'0 0.0
2016-Jun-26 11:33N 40°40' W 074°00'0 0.0
2016-Jun-26 10:33N 40°40' W 074°00'0 0.0
2016-Jun-26 09:33N 40°40' W 074°00'0 0.0
2016-Jun-26 08:33N 40°40' W 074°00'0 0.0
2016-Jun-26 07:33N 40°40' W 074°00'0 0.0
2016-Jun-26 06:33N 40°40' W 074°00'0 0.0
2016-Jun-26 05:33N 40°40' W 074°00'0 0.0
2016-Jun-26 04:33N 40°40' W 074°00'0 0.0
2016-Jun-26 03:33N 40°40' W 074°00'0 0.0
2016-Jun-26 02:33N 40°40' W 074°00'0 0.0
2016-Jun-26 01:33N 40°40' W 074°00'0 0.0
2016-Jun-26 00:33N 40°40' W 074°00'0 0.0
2016-Jun-25 23:33N 40°40' W 074°00'0 0.0
2016-Jun-25 22:33N 40°40' W 074°00'0 0.0
2016-Jun-25 21:33N 40°40' W 074°00'0 0.0
2016-Jun-25 20:34N 40°40' W 074°00'0 0.0
2016-Jun-25 19:34N 40°40' W 074°00'5 4.5
2016-Jun-25 18:34N 40°39' W 074°06'1 0.6
2016-Jun-25 17:34N 40°39' W 074°07'0 0.0
2016-Jun-25 16:33N 40°39' W 074°07'0 0.0
2016-Jun-25 15:34N 40°39' W 074°07'1 0.9
2016-Jun-25 14:34N 40°39' W 074°05'4 4.1
2016-Jun-25 13:34N 40°40' W 074°00'3 2.7
2016-Jun-25 12:33N 40°43' W 073°59'7 6.7
2016-Jun-25 11:31N 40°48' W 073°54'3 3.5
2016-Jun-25 10:32N 40°46' W 073°51'0 0.0
2016-Jun-25 03:16N 40°46' W 073°51'0 0.0
2016-Jun-25 01:22N 40°46' W 073°51'0 0.0
2016-Jun-25 00:32N 40°46' W 073°51'0 0.0
2016-Jun-24 23:21N 40°46' W 073°51'0 0.0
2016-Jun-24 22:14N 40°46' W 073°51'0 0.0
2016-Jun-24 21:19N 40°46' W 073°51'0 0.0
2016-Jun-24 19:29N 40°46' W 073°51'3 1.2
2016-Jun-24 16:29N 40°48' W 073°54'7 8.0
2016-Jun-24 15:34N 40°42' W 073°60'2 1.6
2016-Jun-24 14:34N 40°43' W 074°01'1 1.3
2016-Jun-24 13:34N 40°45' W 074°01'3 2.9
2016-Jun-24 12:34N 40°47' W 073°59'2 0.0
2016-Jun-22 11:34N 40°46' W 074°00'3 2.7
2016-Jun-22 10:32N 40°44' W 073°58'6 0.2
2016-Jun-21 05:33N 40°46' W 073°51'0 0.0
2016-Jun-21 04:33N 40°46' W 073°51'0 0.0
2016-Jun-21 03:30N 40°46' W 073°51'0 0.0
2016-Jun-21 02:06N 40°46' W 073°51'0 0.0
2016-Jun-21 01:33N 40°46' W 073°51'0 0.0
2016-Jun-20 23:33N 40°46' W 073°51'0 0.0
2016-Jun-20 22:33N 40°46' W 073°51'0 0.0
2016-Jun-20 21:33N 40°46' W 073°51'0 0.0
2016-Jun-20 20:23N 40°46' W 073°51'0 0.0
2016-Jun-20 18:11N 40°46' W 073°51'0 0.0
2016-Jun-20 17:33N 40°46' W 073°51'0 0.0
2016-Jun-20 16:30N 40°46' W 073°51'0 0.0
2016-Jun-20 15:25N 40°46' W 073°51'0 0.0
2016-Jun-20 14:25N 40°46' W 073°51'0 0.0
2016-Jun-20 13:27N 40°46' W 073°51'0 0.0
2016-Jun-20 12:18N 40°46' W 073°51'0 0.0
2016-Jun-20 11:33N 40°46' W 073°51'0 0.0
2016-Jun-20 10:31N 40°46' W 073°51'0 0.0
2016-Jun-20 09:32N 40°46' W 073°51'0 0.0
2016-Jun-20 08:31N 40°46' W 073°51'0 0.0
2016-Jun-20 07:33N 40°46' W 073°51'0 0.0
2016-Jun-20 06:23N 40°46' W 073°51'0 0.0
2016-Jun-20 05:34N 40°46' W 073°51'0 0.0
2016-Jun-20 04:31N 40°46' W 073°51'0 0.0
2016-Jun-20 03:33N 40°46' W 073°51'0 0.0
2016-Jun-20 02:31N 40°46' W 073°51'0 0.0
2016-Jun-20 00:33N 40°46' W 073°51'0 0.0
2016-Jun-19 23:33N 40°46' W 073°51'0 0.0
2016-Jun-19 22:33N 40°46' W 073°51'0 0.0
2016-Jun-19 19:31N 40°46' W 073°51'0 0.0
2016-Jun-19 17:21N 40°46' W 073°51'0 0.0
2016-Jun-19 16:34N 40°46' W 073°51'0 0.0
2016-Jun-19 15:29N 40°46' W 073°51'0 0.0
2016-Jun-19 14:33N 40°46' W 073°51'0 0.0
2016-Jun-19 12:19N 40°46' W 073°51'0 0.0
2016-Jun-19 04:32N 40°46' W 073°51'0 0.0
2016-Jun-19 03:32N 40°46' W 073°51'0 0.0
2016-Jun-19 02:33N 40°46' W 073°51'0 0.0
2016-Jun-19 00:31N 40°46' W 073°51'0 0.0
2016-Jun-18 23:33N 40°46' W 073°51'0 0.0
2016-Jun-18 22:33N 40°46' W 073°51'0 0.0
2016-Jun-18 21:33N 40°46' W 073°51'0 0.0
2016-Jun-18 20:30N 40°46' W 073°51'0 0.0
2016-Jun-18 19:33N 40°46' W 073°51'0 0.0
2016-Jun-18 18:31N 40°46' W 073°51'0 0.0
2016-Jun-18 17:31N 40°46' W 073°51'0 0.0
2016-Jun-18 16:33N 40°46' W 073°51'0 0.0
2016-Jun-18 15:32N 40°46' W 073°51'0 0.0
2016-Jun-18 14:33N 40°46' W 073°51'0 0.0
2016-Jun-18 13:34N 40°46' W 073°51'2 1.7
2016-Jun-18 12:32N 40°48' W 073°52'6 6.1
2016-Jun-18 11:33N 40°44' W 073°58'2 2.4
2016-Jun-18 10:33N 40°45' W 074°01'6 5.9
2016-Jun-18 09:31N 40°51' W 073°57'  

Dump ship's entire track history